sensor_id;sensor_type;location;lat;lon;timestamp;P1;durP1;ratioP1;P2;durP2;ratioP2
65757;SDS011;52495;52.208;5.158;2022-12-18T00:02:13;64.07;;;28.30;;
65757;SDS011;52495;52.208;5.158;2022-12-18T00:04:41;68.70;;;28.17;;
65757;SDS011;52495;52.208;5.158;2022-12-18T00:07:08;73.68;;;29.20;;
65757;SDS011;52495;52.208;5.158;2022-12-18T00:09:35;61.80;;;25.73;;
65757;SDS011;52495;52.208;5.158;2022-12-18T00:12:02;58.78;;;24.05;;
65757;SDS011;52495;52.208;5.158;2022-12-18T00:14:29;61.10;;;25.05;;
65757;SDS011;52495;52.208;5.158;2022-12-18T00:16:56;57.95;;;26.73;;
65757;SDS011;52495;52.208;5.158;2022-12-18T00:19:25;70.10;;;27.85;;
65757;SDS011;52495;52.208;5.158;2022-12-18T00:21:54;70.72;;;27.73;;
65757;SDS011;52495;52.208;5.158;2022-12-18T00:24:21;68.03;;;29.10;;
65757;SDS011;52495;52.208;5.158;2022-12-18T00:26:47;64.82;;;27.73;;
65757;SDS011;52495;52.208;5.158;2022-12-18T00:29:14;68.30;;;26.70;;
65757;SDS011;52495;52.208;5.158;2022-12-18T00:31:42;64.60;;;27.60;;
65757;SDS011;52495;52.208;5.158;2022-12-18T00:34:10;63.50;;;26.83;;
65757;SDS011;52495;52.208;5.158;2022-12-18T00:36:39;64.40;;;25.20;;
65757;SDS011;52495;52.208;5.158;2022-12-18T00:39:08;62.25;;;26.30;;
65757;SDS011;52495;52.208;5.158;2022-12-18T00:41:37;62.28;;;28.85;;
65757;SDS011;52495;52.208;5.158;2022-12-18T00:44:21;63.53;;;26.65;;
65757;SDS011;52495;52.208;5.158;2022-12-18T00:46:48;62.78;;;25.63;;
65757;SDS011;52495;52.208;5.158;2022-12-18T00:49:15;58.22;;;27.42;;
65757;SDS011;52495;52.208;5.158;2022-12-18T00:51:43;55.97;;;23.08;;
65757;SDS011;52495;52.208;5.158;2022-12-18T00:54:11;58.92;;;24.00;;
65757;SDS011;52495;52.208;5.158;2022-12-18T00:56:38;62.55;;;25.45;;
65757;SDS011;52495;52.208;5.158;2022-12-18T00:59:06;57.00;;;25.88;;
65757;SDS011;52495;52.208;5.158;2022-12-18T01:01:33;58.42;;;26.75;;
65757;SDS011;52495;52.208;5.158;2022-12-18T01:04:04;62.38;;;26.33;;
65757;SDS011;52495;52.208;5.158;2022-12-18T01:06:31;55.67;;;25.20;;
65757;SDS011;52495;52.208;5.158;2022-12-18T01:08:58;57.33;;;27.15;;
65757;SDS011;52495;52.208;5.158;2022-12-18T01:11:27;58.35;;;22.90;;
65757;SDS011;52495;52.208;5.158;2022-12-18T01:13:53;63.83;;;28.85;;
65757;SDS011;52495;52.208;5.158;2022-12-18T01:16:21;57.92;;;26.00;;
65757;SDS011;52495;52.208;5.158;2022-12-18T01:18:51;58.50;;;26.67;;
65757;SDS011;52495;52.208;5.158;2022-12-18T01:21:19;60.85;;;26.05;;
65757;SDS011;52495;52.208;5.158;2022-12-18T01:23:46;53.60;;;25.50;;
65757;SDS011;52495;52.208;5.158;2022-12-18T01:26:14;57.97;;;26.30;;
65757;SDS011;52495;52.208;5.158;2022-12-18T01:28:44;54.33;;;22.92;;
65757;SDS011;52495;52.208;5.158;2022-12-18T01:31:11;63.97;;;24.63;;
65757;SDS011;52495;52.208;5.158;2022-12-18T01:33:39;53.70;;;24.40;;
65757;SDS011;52495;52.208;5.158;2022-12-18T01:36:07;60.88;;;26.33;;
65757;SDS011;52495;52.208;5.158;2022-12-18T01:38:34;57.80;;;25.33;;
65757;SDS011;52495;52.208;5.158;2022-12-18T01:41:01;55.58;;;24.52;;
65757;SDS011;52495;52.208;5.158;2022-12-18T01:43:47;62.38;;;26.00;;
65757;SDS011;52495;52.208;5.158;2022-12-18T01:46:16;60.00;;;26.38;;
65757;SDS011;52495;52.208;5.158;2022-12-18T01:48:44;51.40;;;24.70;;
65757;SDS011;52495;52.208;5.158;2022-12-18T01:51:14;61.03;;;24.95;;
65757;SDS011;52495;52.208;5.158;2022-12-18T01:53:41;53.97;;;26.58;;
65757;SDS011;52495;52.208;5.158;2022-12-18T01:56:11;57.30;;;27.17;;
65757;SDS011;52495;52.208;5.158;2022-12-18T01:58:43;61.15;;;26.70;;
65757;SDS011;52495;52.208;5.158;2022-12-18T02:01:23;51.85;;;23.13;;
65757;SDS011;52495;52.208;5.158;2022-12-18T02:03:50;60.78;;;26.27;;
65757;SDS011;52495;52.208;5.158;2022-12-18T02:06:19;55.42;;;25.00;;
65757;SDS011;52495;52.208;5.158;2022-12-18T02:08:54;53.20;;;24.35;;
65757;SDS011;52495;52.208;5.158;2022-12-18T02:11:32;58.70;;;26.98;;
65757;SDS011;52495;52.208;5.158;2022-12-18T02:14:13;55.85;;;25.00;;
65757;SDS011;52495;52.208;5.158;2022-12-18T02:16:48;63.55;;;26.90;;
65757;SDS011;52495;52.208;5.158;2022-12-18T02:19:26;61.90;;;27.38;;
65757;SDS011;52495;52.208;5.158;2022-12-18T02:22:07;59.15;;;23.80;;
65757;SDS011;52495;52.208;5.158;2022-12-18T02:24:44;60.15;;;27.52;;
65757;SDS011;52495;52.208;5.158;2022-12-18T02:27:21;58.10;;;25.52;;
65757;SDS011;52495;52.208;5.158;2022-12-18T02:29:50;59.47;;;24.90;;
65757;SDS011;52495;52.208;5.158;2022-12-18T02:32:20;62.22;;;26.10;;
65757;SDS011;52495;52.208;5.158;2022-12-18T02:34:51;60.88;;;26.17;;
65757;SDS011;52495;52.208;5.158;2022-12-18T02:37:23;64.07;;;26.75;;
65757;SDS011;52495;52.208;5.158;2022-12-18T02:39:52;59.25;;;25.73;;
65757;SDS011;52495;52.208;5.158;2022-12-18T02:42:22;53.00;;;24.45;;
65757;SDS011;52495;52.208;5.158;2022-12-18T02:44:51;62.65;;;26.92;;
65757;SDS011;52495;52.208;5.158;2022-12-18T02:47:23;61.20;;;25.73;;
65757;SDS011;52495;52.208;5.158;2022-12-18T02:49:57;59.75;;;26.30;;
65757;SDS011;52495;52.208;5.158;2022-12-18T02:52:31;59.05;;;25.45;;
65757;SDS011;52495;52.208;5.158;2022-12-18T02:55:12;56.22;;;24.85;;
65757;SDS011;52495;52.208;5.158;2022-12-18T02:57:52;58.33;;;26.50;;
65757;SDS011;52495;52.208;5.158;2022-12-18T03:00:29;62.78;;;27.40;;
65757;SDS011;52495;52.208;5.158;2022-12-18T03:03:02;61.22;;;24.85;;
65757;SDS011;52495;52.208;5.158;2022-12-18T03:05:33;53.63;;;26.63;;
65757;SDS011;52495;52.208;5.158;2022-12-18T03:08:05;59.72;;;25.95;;
65757;SDS011;52495;52.208;5.158;2022-12-18T03:10:38;59.08;;;26.30;;
65757;SDS011;52495;52.208;5.158;2022-12-18T03:13:12;55.67;;;23.98;;
65757;SDS011;52495;52.208;5.158;2022-12-18T03:15:44;57.80;;;25.75;;
65757;SDS011;52495;52.208;5.158;2022-12-18T03:18:15;54.60;;;24.70;;
65757;SDS011;52495;52.208;5.158;2022-12-18T03:20:45;57.65;;;25.02;;
65757;SDS011;52495;52.208;5.158;2022-12-18T03:23:19;59.65;;;27.20;;
65757;SDS011;52495;52.208;5.158;2022-12-18T03:25:50;65.68;;;25.52;;
65757;SDS011;52495;52.208;5.158;2022-12-18T03:28:23;57.85;;;25.55;;
65757;SDS011;52495;52.208;5.158;2022-12-18T03:30:58;64.07;;;27.30;;
65757;SDS011;52495;52.208;5.158;2022-12-18T03:33:28;56.47;;;23.77;;
65757;SDS011;52495;52.208;5.158;2022-12-18T03:35:58;63.90;;;28.20;;
65757;SDS011;52495;52.208;5.158;2022-12-18T03:38:25;62.88;;;25.25;;
65757;SDS011;52495;52.208;5.158;2022-12-18T03:40:55;57.17;;;25.73;;
65757;SDS011;52495;52.208;5.158;2022-12-18T03:43:33;55.60;;;26.15;;
65757;SDS011;52495;52.208;5.158;2022-12-18T03:46:08;59.88;;;28.63;;
65757;SDS011;52495;52.208;5.158;2022-12-18T03:48:41;51.15;;;25.15;;
65757;SDS011;52495;52.208;5.158;2022-12-18T03:51:16;54.30;;;24.13;;
65757;SDS011;52495;52.208;5.158;2022-12-18T03:53:50;55.65;;;26.20;;
65757;SDS011;52495;52.208;5.158;2022-12-18T03:56:26;54.33;;;25.48;;
65757;SDS011;52495;52.208;5.158;2022-12-18T03:58:59;54.50;;;24.95;;
65757;SDS011;52495;52.208;5.158;2022-12-18T04:01:31;51.70;;;21.95;;
65757;SDS011;52495;52.208;5.158;2022-12-18T04:04:01;55.75;;;25.48;;
65757;SDS011;52495;52.208;5.158;2022-12-18T04:06:32;57.80;;;25.08;;
65757;SDS011;52495;52.208;5.158;2022-12-18T04:09:00;58.30;;;25.27;;
65757;SDS011;52495;52.208;5.158;2022-12-18T04:11:28;52.15;;;24.65;;
65757;SDS011;52495;52.208;5.158;2022-12-18T04:13:56;47.28;;;23.45;;
65757;SDS011;52495;52.208;5.158;2022-12-18T04:16:25;52.35;;;23.80;;
65757;SDS011;52495;52.208;5.158;2022-12-18T04:18:57;50.95;;;23.42;;
65757;SDS011;52495;52.208;5.158;2022-12-18T04:21:25;51.78;;;23.85;;
65757;SDS011;52495;52.208;5.158;2022-12-18T04:23:52;49.67;;;25.35;;
65757;SDS011;52495;52.208;5.158;2022-12-18T04:26:21;47.55;;;23.92;;
65757;SDS011;52495;52.208;5.158;2022-12-18T04:29:11;49.65;;;24.65;;
65757;SDS011;52495;52.208;5.158;2022-12-18T04:31:39;52.15;;;24.17;;
65757;SDS011;52495;52.208;5.158;2022-12-18T04:34:06;47.78;;;24.05;;
65757;SDS011;52495;52.208;5.158;2022-12-18T04:36:39;49.17;;;20.75;;
65757;SDS011;52495;52.208;5.158;2022-12-18T04:39:06;50.58;;;23.27;;
65757;SDS011;52495;52.208;5.158;2022-12-18T04:41:33;48.35;;;23.88;;
65757;SDS011;52495;52.208;5.158;2022-12-18T04:44:00;50.55;;;22.88;;
65757;SDS011;52495;52.208;5.158;2022-12-18T04:46:27;46.70;;;21.55;;
65757;SDS011;52495;52.208;5.158;2022-12-18T04:48:56;44.47;;;21.27;;
65757;SDS011;52495;52.208;5.158;2022-12-18T04:51:22;45.22;;;22.70;;
65757;SDS011;52495;52.208;5.158;2022-12-18T04:53:49;46.08;;;22.00;;
65757;SDS011;52495;52.208;5.158;2022-12-18T04:56:16;47.63;;;24.20;;
65757;SDS011;52495;52.208;5.158;2022-12-18T04:58:43;48.97;;;22.13;;
65757;SDS011;52495;52.208;5.158;2022-12-18T05:01:11;41.20;;;20.75;;
65757;SDS011;52495;52.208;5.158;2022-12-18T05:03:39;40.08;;;20.90;;
65757;SDS011;52495;52.208;5.158;2022-12-18T05:06:08;46.97;;;21.55;;
65757;SDS011;52495;52.208;5.158;2022-12-18T05:08:35;44.97;;;20.80;;
65757;SDS011;52495;52.208;5.158;2022-12-18T05:11:02;43.60;;;21.40;;
65757;SDS011;52495;52.208;5.158;2022-12-18T05:13:30;39.90;;;20.60;;
65757;SDS011;52495;52.208;5.158;2022-12-18T05:15:58;40.53;;;19.27;;
65757;SDS011;52495;52.208;5.158;2022-12-18T05:18:25;44.92;;;20.60;;
65757;SDS011;52495;52.208;5.158;2022-12-18T05:20:52;39.10;;;19.33;;
65757;SDS011;52495;52.208;5.158;2022-12-18T05:23:22;41.00;;;19.70;;
65757;SDS011;52495;52.208;5.158;2022-12-18T05:25:50;40.63;;;18.73;;
65757;SDS011;52495;52.208;5.158;2022-12-18T05:28:18;39.45;;;19.13;;
65757;SDS011;52495;52.208;5.158;2022-12-18T05:30:47;37.60;;;19.25;;
65757;SDS011;52495;52.208;5.158;2022-12-18T05:33:14;39.08;;;19.30;;
65757;SDS011;52495;52.208;5.158;2022-12-18T05:35:41;37.25;;;19.05;;
65757;SDS011;52495;52.208;5.158;2022-12-18T05:38:08;37.08;;;18.55;;
65757;SDS011;52495;52.208;5.158;2022-12-18T05:40:36;39.35;;;17.55;;
65757;SDS011;52495;52.208;5.158;2022-12-18T05:43:02;37.97;;;18.38;;
65757;SDS011;52495;52.208;5.158;2022-12-18T05:45:29;37.83;;;18.52;;
65757;SDS011;52495;52.208;5.158;2022-12-18T05:47:56;31.23;;;17.33;;
65757;SDS011;52495;52.208;5.158;2022-12-18T05:50:22;32.05;;;17.27;;
65757;SDS011;52495;52.208;5.158;2022-12-18T05:52:49;36.47;;;17.38;;
65757;SDS011;52495;52.208;5.158;2022-12-18T05:55:16;32.78;;;17.63;;
65757;SDS011;52495;52.208;5.158;2022-12-18T05:57:44;34.60;;;16.70;;
65757;SDS011;52495;52.208;5.158;2022-12-18T06:00:11;32.13;;;16.80;;
65757;SDS011;52495;52.208;5.158;2022-12-18T06:02:39;35.95;;;16.58;;
65757;SDS011;52495;52.208;5.158;2022-12-18T06:05:05;33.80;;;18.05;;
65757;SDS011;52495;52.208;5.158;2022-12-18T06:07:32;32.65;;;16.70;;
65757;SDS011;52495;52.208;5.158;2022-12-18T06:09:59;33.00;;;17.20;;
65757;SDS011;52495;52.208;5.158;2022-12-18T06:12:26;33.80;;;18.00;;
65757;SDS011;52495;52.208;5.158;2022-12-18T06:14:54;34.58;;;17.08;;
65757;SDS011;52495;52.208;5.158;2022-12-18T06:17:20;28.90;;;16.25;;
65757;SDS011;52495;52.208;5.158;2022-12-18T06:19:47;34.25;;;16.75;;
65757;SDS011;52495;52.208;5.158;2022-12-18T06:22:14;34.63;;;16.88;;
65757;SDS011;52495;52.208;5.158;2022-12-18T06:24:41;33.28;;;16.92;;
65757;SDS011;52495;52.208;5.158;2022-12-18T06:27:08;31.60;;;16.15;;
65757;SDS011;52495;52.208;5.158;2022-12-18T06:29:35;34.60;;;17.13;;
65757;SDS011;52495;52.208;5.158;2022-12-18T06:32:03;32.88;;;16.25;;
65757;SDS011;52495;52.208;5.158;2022-12-18T06:34:30;29.10;;;15.40;;
65757;SDS011;52495;52.208;5.158;2022-12-18T06:36:57;32.45;;;16.40;;
65757;SDS011;52495;52.208;5.158;2022-12-18T06:39:24;28.73;;;14.13;;
65757;SDS011;52495;52.208;5.158;2022-12-18T06:41:53;28.98;;;14.63;;
65757;SDS011;52495;52.208;5.158;2022-12-18T06:44:20;31.25;;;15.20;;
65757;SDS011;52495;52.208;5.158;2022-12-18T06:46:47;28.95;;;14.90;;
65757;SDS011;52495;52.208;5.158;2022-12-18T06:49:15;28.40;;;14.00;;
65757;SDS011;52495;52.208;5.158;2022-12-18T06:51:42;30.70;;;15.10;;
65757;SDS011;52495;52.208;5.158;2022-12-18T06:54:09;34.33;;;15.98;;
65757;SDS011;52495;52.208;5.158;2022-12-18T06:56:35;29.95;;;15.75;;
65757;SDS011;52495;52.208;5.158;2022-12-18T06:59:02;31.95;;;15.70;;
65757;SDS011;52495;52.208;5.158;2022-12-18T07:01:29;28.80;;;14.77;;
65757;SDS011;52495;52.208;5.158;2022-12-18T07:03:56;24.73;;;14.25;;
65757;SDS011;52495;52.208;5.158;2022-12-18T07:06:25;25.83;;;14.55;;
65757;SDS011;52495;52.208;5.158;2022-12-18T07:08:53;28.05;;;13.85;;
65757;SDS011;52495;52.208;5.158;2022-12-18T07:11:20;24.83;;;13.27;;
65757;SDS011;52495;52.208;5.158;2022-12-18T07:13:47;26.85;;;13.35;;
65757;SDS011;52495;52.208;5.158;2022-12-18T07:16:14;30.95;;;14.45;;
65757;SDS011;52495;52.208;5.158;2022-12-18T07:18:42;26.15;;;13.75;;
65757;SDS011;52495;52.208;5.158;2022-12-18T07:21:10;24.75;;;13.77;;
65757;SDS011;52495;52.208;5.158;2022-12-18T07:23:41;26.77;;;14.10;;
65757;SDS011;52495;52.208;5.158;2022-12-18T07:26:08;27.17;;;14.75;;
65757;SDS011;52495;52.208;5.158;2022-12-18T07:28:36;30.90;;;14.30;;
65757;SDS011;52495;52.208;5.158;2022-12-18T07:31:04;24.65;;;13.23;;
65757;SDS011;52495;52.208;5.158;2022-12-18T07:33:32;27.30;;;13.70;;
65757;SDS011;52495;52.208;5.158;2022-12-18T07:36:00;25.25;;;13.10;;
65757;SDS011;52495;52.208;5.158;2022-12-18T07:38:26;28.45;;;12.93;;
65757;SDS011;52495;52.208;5.158;2022-12-18T07:40:59;30.25;;;14.48;;
65757;SDS011;52495;52.208;5.158;2022-12-18T07:43:27;28.13;;;14.82;;
65757;SDS011;52495;52.208;5.158;2022-12-18T07:45:53;25.58;;;13.77;;
65757;SDS011;52495;52.208;5.158;2022-12-18T07:48:20;26.33;;;13.40;;
65757;SDS011;52495;52.208;5.158;2022-12-18T07:50:47;26.15;;;13.70;;
65757;SDS011;52495;52.208;5.158;2022-12-18T07:53:14;28.75;;;13.52;;
65757;SDS011;52495;52.208;5.158;2022-12-18T07:55:40;24.80;;;12.65;;
65757;SDS011;52495;52.208;5.158;2022-12-18T07:58:09;21.73;;;12.32;;
65757;SDS011;52495;52.208;5.158;2022-12-18T08:00:36;20.20;;;11.93;;
65757;SDS011;52495;52.208;5.158;2022-12-18T08:03:02;22.52;;;12.90;;
65757;SDS011;52495;52.208;5.158;2022-12-18T08:05:29;28.23;;;13.15;;
65757;SDS011;52495;52.208;5.158;2022-12-18T08:07:56;22.35;;;12.43;;
65757;SDS011;52495;52.208;5.158;2022-12-18T08:10:24;25.88;;;12.90;;
65757;SDS011;52495;52.208;5.158;2022-12-18T08:12:51;25.25;;;12.57;;
65757;SDS011;52495;52.208;5.158;2022-12-18T08:15:19;23.08;;;12.40;;
65757;SDS011;52495;52.208;5.158;2022-12-18T08:17:46;22.15;;;11.93;;
65757;SDS011;52495;52.208;5.158;2022-12-18T08:20:13;24.38;;;12.32;;
65757;SDS011;52495;52.208;5.158;2022-12-18T08:22:40;22.65;;;12.02;;
65757;SDS011;52495;52.208;5.158;2022-12-18T08:25:07;27.00;;;13.45;;
65757;SDS011;52495;52.208;5.158;2022-12-18T08:27:34;25.38;;;12.00;;
65757;SDS011;52495;52.208;5.158;2022-12-18T08:30:01;23.42;;;13.05;;
65757;SDS011;52495;52.208;5.158;2022-12-18T08:32:30;26.73;;;13.25;;
65757;SDS011;52495;52.208;5.158;2022-12-18T08:34:58;22.17;;;12.57;;
65757;SDS011;52495;52.208;5.158;2022-12-18T08:37:25;24.63;;;12.93;;
65757;SDS011;52495;52.208;5.158;2022-12-18T08:39:51;23.73;;;12.63;;
65757;SDS011;52495;52.208;5.158;2022-12-18T08:42:18;25.38;;;13.68;;
65757;SDS011;52495;52.208;5.158;2022-12-18T08:45:02;21.55;;;12.35;;
65757;SDS011;52495;52.208;5.158;2022-12-18T08:47:31;25.52;;;13.23;;
65757;SDS011;52495;52.208;5.158;2022-12-18T08:49:57;26.63;;;14.93;;
65757;SDS011;52495;52.208;5.158;2022-12-18T08:52:24;23.83;;;13.85;;
65757;SDS011;52495;52.208;5.158;2022-12-18T08:54:51;22.77;;;13.25;;
65757;SDS011;52495;52.208;5.158;2022-12-18T08:57:18;18.65;;;10.48;;
65757;SDS011;52495;52.208;5.158;2022-12-18T08:59:44;23.23;;;12.90;;
65757;SDS011;52495;52.208;5.158;2022-12-18T09:02:11;21.95;;;12.40;;
65757;SDS011;52495;52.208;5.158;2022-12-18T09:04:39;19.52;;;12.25;;
65757;SDS011;52495;52.208;5.158;2022-12-18T09:07:06;24.27;;;12.32;;
65757;SDS011;52495;52.208;5.158;2022-12-18T09:09:34;21.27;;;11.88;;
65757;SDS011;52495;52.208;5.158;2022-12-18T09:12:02;23.50;;;13.15;;
65757;SDS011;52495;52.208;5.158;2022-12-18T09:14:29;20.90;;;12.27;;
65757;SDS011;52495;52.208;5.158;2022-12-18T09:16:56;27.58;;;12.30;;
65757;SDS011;52495;52.208;5.158;2022-12-18T09:19:22;24.77;;;14.65;;
65757;SDS011;52495;52.208;5.158;2022-12-18T09:21:50;21.13;;;12.32;;
65757;SDS011;52495;52.208;5.158;2022-12-18T09:24:17;21.05;;;12.02;;
65757;SDS011;52495;52.208;5.158;2022-12-18T09:26:44;21.67;;;12.43;;
65757;SDS011;52495;52.208;5.158;2022-12-18T09:29:11;21.50;;;10.88;;
65757;SDS011;52495;52.208;5.158;2022-12-18T09:31:38;21.25;;;12.13;;
65757;SDS011;52495;52.208;5.158;2022-12-18T09:34:05;19.95;;;11.80;;
65757;SDS011;52495;52.208;5.158;2022-12-18T09:36:31;26.48;;;12.75;;
65757;SDS011;52495;52.208;5.158;2022-12-18T09:38:59;24.20;;;12.38;;
65757;SDS011;52495;52.208;5.158;2022-12-18T09:41:35;19.02;;;10.43;;
65757;SDS011;52495;52.208;5.158;2022-12-18T09:44:15;50.30;;;27.83;;
65757;SDS011;52495;52.208;5.158;2022-12-18T09:46:47;26.33;;;13.73;;
65757;SDS011;52495;52.208;5.158;2022-12-18T09:49:20;47.50;;;25.48;;
65757;SDS011;52495;52.208;5.158;2022-12-18T09:51:50;24.35;;;13.13;;
65757;SDS011;52495;52.208;5.158;2022-12-18T09:54:24;20.13;;;14.02;;
65757;SDS011;52495;52.208;5.158;2022-12-18T09:56:56;26.70;;;14.95;;
65757;SDS011;52495;52.208;5.158;2022-12-18T09:59:23;25.58;;;14.05;;
65757;SDS011;52495;52.208;5.158;2022-12-18T10:01:52;28.05;;;15.52;;
65757;SDS011;52495;52.208;5.158;2022-12-18T10:04:19;26.73;;;14.73;;
65757;SDS011;52495;52.208;5.158;2022-12-18T10:06:46;26.25;;;13.07;;
65757;SDS011;52495;52.208;5.158;2022-12-18T10:09:22;53.78;;;26.50;;
65757;SDS011;52495;52.208;5.158;2022-12-18T10:11:59;20.65;;;12.63;;
65757;SDS011;52495;52.208;5.158;2022-12-18T10:14:36;24.88;;;16.05;;
65757;SDS011;52495;52.208;5.158;2022-12-18T10:17:13;20.60;;;12.15;;
65757;SDS011;52495;52.208;5.158;2022-12-18T10:19:50;25.63;;;16.83;;
65757;SDS011;52495;52.208;5.158;2022-12-18T10:22:25;31.75;;;20.00;;
65757;SDS011;52495;52.208;5.158;2022-12-18T10:25:13;29.65;;;19.63;;
65757;SDS011;52495;52.208;5.158;2022-12-18T10:27:46;21.38;;;12.82;;
65757;SDS011;52495;52.208;5.158;2022-12-18T10:30:15;23.40;;;13.18;;
65757;SDS011;52495;52.208;5.158;2022-12-18T10:32:45;19.90;;;12.35;;
65757;SDS011;52495;52.208;5.158;2022-12-18T10:35:15;24.42;;;13.43;;
65757;SDS011;52495;52.208;5.158;2022-12-18T10:37:59;24.55;;;13.43;;
65757;SDS011;52495;52.208;5.158;2022-12-18T10:40:28;24.00;;;12.90;;
65757;SDS011;52495;52.208;5.158;2022-12-18T10:43:03;21.52;;;12.20;;
65757;SDS011;52495;52.208;5.158;2022-12-18T10:45:31;23.48;;;12.77;;
65757;SDS011;52495;52.208;5.158;2022-12-18T10:47:58;23.02;;;12.77;;
65757;SDS011;52495;52.208;5.158;2022-12-18T10:50:25;19.55;;;11.73;;
65757;SDS011;52495;52.208;5.158;2022-12-18T10:52:55;24.00;;;13.98;;
65757;SDS011;52495;52.208;5.158;2022-12-18T10:55:24;22.08;;;13.82;;
65757;SDS011;52495;52.208;5.158;2022-12-18T10:57:57;18.42;;;11.73;;
65757;SDS011;52495;52.208;5.158;2022-12-18T11:00:42;20.42;;;10.73;;
65757;SDS011;52495;52.208;5.158;2022-12-18T11:03:17;19.30;;;10.93;;
65757;SDS011;52495;52.208;5.158;2022-12-18T11:06:01;19.80;;;11.25;;
65757;SDS011;52495;52.208;5.158;2022-12-18T11:08:30;18.88;;;10.88;;
65757;SDS011;52495;52.208;5.158;2022-12-18T11:10:57;21.77;;;12.40;;
65757;SDS011;52495;52.208;5.158;2022-12-18T11:13:26;24.88;;;17.63;;
65757;SDS011;52495;52.208;5.158;2022-12-18T11:15:55;23.55;;;13.15;;
65757;SDS011;52495;52.208;5.158;2022-12-18T11:18:28;20.90;;;12.05;;
65757;SDS011;52495;52.208;5.158;2022-12-18T11:20:58;20.25;;;12.20;;
65757;SDS011;52495;52.208;5.158;2022-12-18T11:23:27;20.42;;;12.18;;
65757;SDS011;52495;52.208;5.158;2022-12-18T11:25:55;21.75;;;12.35;;
65757;SDS011;52495;52.208;5.158;2022-12-18T11:28:37;20.98;;;13.40;;
65757;SDS011;52495;52.208;5.158;2022-12-18T11:31:24;18.17;;;12.68;;
65757;SDS011;52495;52.208;5.158;2022-12-18T11:33:54;21.55;;;13.07;;
65757;SDS011;52495;52.208;5.158;2022-12-18T11:36:25;32.03;;;21.98;;
65757;SDS011;52495;52.208;5.158;2022-12-18T11:38:59;25.02;;;15.55;;
65757;SDS011;52495;52.208;5.158;2022-12-18T11:41:32;22.92;;;13.63;;
65757;SDS011;52495;52.208;5.158;2022-12-18T11:44:25;21.25;;;16.92;;
65757;SDS011;52495;52.208;5.158;2022-12-18T11:46:55;18.45;;;12.65;;
65757;SDS011;52495;52.208;5.158;2022-12-18T11:51:58;17.98;;;11.07;;
65757;SDS011;52495;52.208;5.158;2022-12-18T11:54:30;20.10;;;10.50;;
65757;SDS011;52495;52.208;5.158;2022-12-18T11:56:58;17.98;;;10.63;;
65757;SDS011;52495;52.208;5.158;2022-12-18T11:59:35;20.70;;;11.27;;
65757;SDS011;52495;52.208;5.158;2022-12-18T12:02:17;18.80;;;10.77;;
65757;SDS011;52495;52.208;5.158;2022-12-18T12:05:10;19.25;;;11.52;;
65757;SDS011;52495;52.208;5.158;2022-12-18T12:07:52;20.20;;;11.43;;
65757;SDS011;52495;52.208;5.158;2022-12-18T12:10:32;19.88;;;11.32;;
65757;SDS011;52495;52.208;5.158;2022-12-18T12:13:13;20.23;;;12.93;;
65757;SDS011;52495;52.208;5.158;2022-12-18T12:15:52;19.73;;;11.82;;
65757;SDS011;52495;52.208;5.158;2022-12-18T12:18:29;22.27;;;11.98;;
65757;SDS011;52495;52.208;5.158;2022-12-18T12:21:07;18.80;;;11.85;;
65757;SDS011;52495;52.208;5.158;2022-12-18T12:23:45;18.15;;;10.73;;
65757;SDS011;52495;52.208;5.158;2022-12-18T12:26:18;18.52;;;11.32;;
65757;SDS011;52495;52.208;5.158;2022-12-18T12:28:59;20.35;;;11.52;;
65757;SDS011;52495;52.208;5.158;2022-12-18T12:31:39;19.33;;;10.80;;
65757;SDS011;52495;52.208;5.158;2022-12-18T12:34:19;19.70;;;10.10;;
65757;SDS011;52495;52.208;5.158;2022-12-18T12:36:52;18.95;;;11.35;;
65757;SDS011;52495;52.208;5.158;2022-12-18T12:39:30;19.25;;;11.50;;
65757;SDS011;52495;52.208;5.158;2022-12-18T12:42:00;17.33;;;10.10;;
65757;SDS011;52495;52.208;5.158;2022-12-18T12:44:48;17.15;;;10.05;;
65757;SDS011;52495;52.208;5.158;2022-12-18T12:47:20;21.27;;;11.07;;
65757;SDS011;52495;52.208;5.158;2022-12-18T12:49:51;20.42;;;10.38;;
65757;SDS011;52495;52.208;5.158;2022-12-18T12:52:20;19.33;;;11.77;;
65757;SDS011;52495;52.208;5.158;2022-12-18T12:54:56;20.15;;;10.27;;
65757;SDS011;52495;52.208;5.158;2022-12-18T12:57:27;18.42;;;10.55;;
65757;SDS011;52495;52.208;5.158;2022-12-18T13:00:01;18.05;;;10.88;;
65757;SDS011;52495;52.208;5.158;2022-12-18T13:02:33;19.13;;;11.32;;
65757;SDS011;52495;52.208;5.158;2022-12-18T13:05:09;17.20;;;10.68;;
65757;SDS011;52495;52.208;5.158;2022-12-18T13:07:46;16.98;;;10.32;;
65757;SDS011;52495;52.208;5.158;2022-12-18T13:10:25;23.75;;;11.85;;
65757;SDS011;52495;52.208;5.158;2022-12-18T13:12:58;17.08;;;9.45;;
65757;SDS011;52495;52.208;5.158;2022-12-18T13:15:28;20.23;;;11.23;;
65757;SDS011;52495;52.208;5.158;2022-12-18T13:20:49;22.77;;;11.43;;
65757;SDS011;52495;52.208;5.158;2022-12-18T13:23:28;18.88;;;11.40;;
65757;SDS011;52495;52.208;5.158;2022-12-18T13:25:58;20.75;;;11.02;;
65757;SDS011;52495;52.208;5.158;2022-12-18T13:28:50;18.23;;;10.23;;
65757;SDS011;52495;52.208;5.158;2022-12-18T13:34:34;18.45;;;10.85;;
65757;SDS011;52495;52.208;5.158;2022-12-18T13:43:30;16.23;;;9.35;;
65757;SDS011;52495;52.208;5.158;2022-12-18T13:46:22;18.27;;;10.57;;
65757;SDS011;52495;52.208;5.158;2022-12-18T13:48:57;20.20;;;10.95;;
65757;SDS011;52495;52.208;5.158;2022-12-18T13:51:28;19.60;;;10.77;;
65757;SDS011;52495;52.208;5.158;2022-12-18T13:53:58;21.02;;;12.35;;
65757;SDS011;52495;52.208;5.158;2022-12-18T13:56:27;22.70;;;10.68;;
65757;SDS011;52495;52.208;5.158;2022-12-18T13:59:14;17.48;;;10.38;;
65757;SDS011;52495;52.208;5.158;2022-12-18T14:01:44;21.35;;;12.20;;
65757;SDS011;52495;52.208;5.158;2022-12-18T14:04:18;17.25;;;10.07;;
65757;SDS011;52495;52.208;5.158;2022-12-18T14:06:49;19.58;;;11.27;;
65757;SDS011;52495;52.208;5.158;2022-12-18T14:09:19;19.92;;;11.00;;
65757;SDS011;52495;52.208;5.158;2022-12-18T14:11:50;18.40;;;11.38;;
65757;SDS011;52495;52.208;5.158;2022-12-18T14:14:18;20.90;;;11.75;;
65757;SDS011;52495;52.208;5.158;2022-12-18T14:16:45;20.40;;;11.02;;
65757;SDS011;52495;52.208;5.158;2022-12-18T14:19:14;20.65;;;10.98;;
65757;SDS011;52495;52.208;5.158;2022-12-18T14:21:45;17.02;;;9.63;;
65757;SDS011;52495;52.208;5.158;2022-12-18T14:24:15;18.35;;;9.95;;
65757;SDS011;52495;52.208;5.158;2022-12-18T14:26:43;19.92;;;10.77;;
65757;SDS011;52495;52.208;5.158;2022-12-18T14:29:18;21.60;;;11.43;;
65757;SDS011;52495;52.208;5.158;2022-12-18T14:34:34;18.83;;;10.07;;
65757;SDS011;52495;52.208;5.158;2022-12-18T14:37:00;18.42;;;10.57;;
65757;SDS011;52495;52.208;5.158;2022-12-18T14:39:29;21.67;;;12.48;;
65757;SDS011;52495;52.208;5.158;2022-12-18T14:41:57;22.05;;;11.90;;
65757;SDS011;52495;52.208;5.158;2022-12-18T14:44:24;19.42;;;11.63;;
65757;SDS011;52495;52.208;5.158;2022-12-18T14:46:51;23.85;;;12.90;;
65757;SDS011;52495;52.208;5.158;2022-12-18T14:49:19;19.50;;;12.30;;
65757;SDS011;52495;52.208;5.158;2022-12-18T14:51:50;22.02;;;13.70;;
65757;SDS011;52495;52.208;5.158;2022-12-18T14:54:19;20.75;;;12.45;;
65757;SDS011;52495;52.208;5.158;2022-12-18T14:56:49;17.95;;;11.52;;
65757;SDS011;52495;52.208;5.158;2022-12-18T14:59:19;20.35;;;12.13;;